Time;durP1;ratioP1;P1;durP2;ratioP2;P2;SDS_P1;SDS_P2;PMS_P1;PMS_P2;Temp;Humidity;BMP_temperature;BMP_pressure;BME280_temperature;BME280_humidity;BME280_pressure;Samples;Min_cycle;Max_cycle;Signal;HPM_P1;HPM_P2
2023/01/07 00:01:30;;;;;;;41.30;25.45;;;9.60;99.90;;;;;;5031901;28;20184;-78
2023/01/07 00:03:57;;;;;;;40.83;25.48;;;9.60;99.90;;;;;;5063347;28;20299;-80
2023/01/07 00:06:35;;;;;;;39.53;25.17;;;9.60;99.90;;;;;;5028664;28;20287;-77
2023/01/07 00:09:02;;;;;;;41.42;25.40;;;9.70;99.90;;;;;;5031039;28;20191;-77
2023/01/07 00:11:31;;;;;;;40.92;26.60;;;9.70;99.90;;;;;;5024582;28;20227;-78
2023/01/07 00:13:58;;;;;;;41.47;25.92;;;9.70;99.90;;;;;;5032387;28;20206;-79
2023/01/07 00:16:27;;;;;;;44.75;27.00;;;9.80;99.90;;;;;;5036423;28;20197;-78
2023/01/07 00:18:54;;;;;;;44.55;28.13;;;9.80;99.90;;;;;;5038683;28;20192;-78
2023/01/07 00:21:22;;;;;;;44.17;27.70;;;9.80;99.90;;;;;;5047200;28;20191;-78
2023/01/07 00:23:48;;;;;;;43.72;27.92;;;9.90;99.90;;;;;;5032154;28;20208;-78
2023/01/07 00:26:16;;;;;;;51.20;28.90;;;9.90;99.90;;;;;;5027126;28;20179;-78
2023/01/07 00:28:44;;;;;;;43.53;27.98;;;9.90;99.90;;;;;;5029577;28;20640;-78
2023/01/07 00:31:13;;;;;;;41.35;27.60;;;10.00;99.90;;;;;;5062350;28;20176;-78
2023/01/07 00:33:48;;;;;;;44.70;29.02;;;10.00;99.90;;;;;;5063702;28;20387;-78
2023/01/07 00:36:14;;;;;;;47.80;29.25;;;10.00;99.90;;;;;;5047243;28;20553;-78
2023/01/07 00:38:39;;;;;;;42.90;28.38;;;10.00;99.90;;;;;;5047019;28;20191;-76
2023/01/07 00:41:05;;;;;;;45.70;28.30;;;10.10;99.90;;;;;;5031998;28;20186;-78
2023/01/07 00:43:31;;;;;;;46.38;28.65;;;10.10;99.90;;;;;;5026714;28;20220;-77
2023/01/07 00:45:57;;;;;;;43.60;28.85;;;10.10;99.90;;;;;;5034312;28;20215;-78
2023/01/07 00:48:23;;;;;;;42.08;27.45;;;10.10;99.90;;;;;;5046724;28;20604;-76
2023/01/07 00:50:50;;;;;;;42.65;27.60;;;10.20;99.90;;;;;;5046512;28;20190;-76
2023/01/07 00:53:17;;;;;;;43.78;27.65;;;10.20;99.90;;;;;;5031885;28;20190;-77
2023/01/07 00:55:43;;;;;;;40.08;26.90;;;10.20;99.90;;;;;;5044947;28;20184;-78
2023/01/07 00:58:24;;;;;;;40.20;26.55;;;10.30;99.90;;;;;;5031634;28;20219;-78
2023/01/07 01:00:56;;;;;;;38.38;25.42;;;10.30;99.90;;;;;;5057974;28;20269;-78
2023/01/07 01:03:23;;;;;;;40.15;26.08;;;10.30;99.90;;;;;;5017249;28;20676;-78
2023/01/07 01:05:49;;;;;;;41.35;26.38;;;10.40;99.90;;;;;;5026199;28;20632;-78
2023/01/07 01:08:16;;;;;;;39.63;24.85;;;10.40;99.90;;;;;;5045151;28;20188;-78
2023/01/07 01:10:43;;;;;;;36.92;24.13;;;10.40;99.90;;;;;;5029864;28;20262;-78
2023/01/07 01:13:14;;;;;;;33.45;23.65;;;10.40;99.90;;;;;;5031372;28;20775;-78
2023/01/07 01:15:47;;;;;;;36.72;24.17;;;10.50;99.90;;;;;;5046463;28;20191;-78
2023/01/07 01:18:14;;;;;;;36.25;23.00;;;10.50;99.90;;;;;;5057803;28;20176;-78
2023/01/07 01:20:40;;;;;;;35.83;23.35;;;10.50;99.90;;;;;;5027826;28;20184;-78
2023/01/07 01:23:07;;;;;;;35.85;24.15;;;10.50;99.90;;;;;;5024058;28;20208;-79
2023/01/07 01:25:32;;;;;;;35.78;23.45;;;10.60;99.90;;;;;;5046433;28;20193;-78
2023/01/07 01:27:58;;;;;;;34.47;22.80;;;10.60;99.90;;;;;;5062345;28;20215;-78
2023/01/07 01:30:24;;;;;;;34.83;23.13;;;10.60;99.90;;;;;;5062199;28;20187;-78
2023/01/07 01:32:51;;;;;;;36.20;24.42;;;10.60;99.90;;;;;;5027836;28;20233;-79
2023/01/07 01:35:16;;;;;;;34.60;23.27;;;10.70;99.90;;;;;;5027267;28;20176;-83
2023/01/07 01:37:42;;;;;;;33.67;23.40;;;10.70;99.90;;;;;;5062246;28;20196;-79
2023/01/07 01:40:09;;;;;;;35.00;23.05;;;10.70;99.90;;;;;;5028257;28;20275;-78
2023/01/07 01:42:35;;;;;;;32.92;22.42;;;10.70;99.90;;;;;;5048481;28;20685;-78
2023/01/07 01:45:04;;;;;;;34.45;23.17;;;10.70;99.90;;;;;;5034929;28;20263;-79
2023/01/07 01:47:55;;;;;;;38.67;24.45;;;10.70;99.90;;;;;;5032635;28;20184;-78
2023/01/07 01:50:25;;;;;;;34.08;23.05;;;10.80;99.90;;;;;;5014531;28;20172;-82
2023/01/07 01:52:55;;;;;;;35.75;22.30;;;10.70;99.90;;;;;;5050375;28;20187;-79
2023/01/07 01:55:25;;;;;;;39.30;23.95;;;10.80;99.90;;;;;;5066630;28;20220;-80
2023/01/07 01:57:55;;;;;;;34.00;22.67;;;10.80;99.90;;;;;;5049843;28;20177;-78
2023/01/07 02:00:22;;;;;;;32.78;22.25;;;10.80;99.90;;;;;;5031549;28;20183;-77
2023/01/07 02:02:55;;;;;;;32.25;22.13;;;10.80;99.90;;;;;;5024533;28;20603;-78
2023/01/07 02:05:35;;;;;;;34.58;23.15;;;10.80;99.90;;;;;;5038657;28;20180;-76
2023/01/07 02:08:01;;;;;;;32.63;22.40;;;10.90;99.90;;;;;;5066802;28;20687;-77
2023/01/07 02:10:30;;;;;;;35.60;23.10;;;10.90;99.90;;;;;;5048557;28;20270;-77
2023/01/07 02:13:05;;;;;;;32.97;23.33;;;10.90;99.90;;;;;;5049198;28;20305;-77
2023/01/07 02:15:43;;;;;;;32.75;23.45;;;10.90;99.90;;;;;;5033244;28;20577;-77
2023/01/07 02:18:27;;;;;;;30.70;23.02;;;10.90;99.90;;;;;;5033088;28;20212;-77
2023/01/07 02:20:56;;;;;;;33.90;24.27;;;11.00;99.90;;;;;;5032073;28;20180;-76
2023/01/07 02:24:05;;;;;;;30.95;23.70;;;11.00;99.90;;;;;;5035027;28;20235;-77
2023/01/07 02:26:59;;;;;;;31.15;22.85;;;11.00;99.90;;;;;;5049699;28;20570;-76
2023/01/07 02:29:47;;;;;;;36.83;25.25;;;11.00;99.90;;;;;;5046239;28;20191;-77
2023/01/07 02:32:35;;;;;;;35.20;24.35;;;11.00;99.90;;;;;;5037676;28;20187;-75
2023/01/07 02:35:32;;;;;;;34.35;25.02;;;11.10;99.90;;;;;;5033376;28;20195;-78
2023/01/07 02:38:11;;;;;;;36.28;25.98;;;11.10;99.90;;;;;;5013968;28;20178;-77
2023/01/07 02:41:16;;;;;;;35.25;25.67;;;11.10;99.90;;;;;;5018775;28;20266;-76
2023/01/07 02:43:54;;;;;;;37.67;26.70;;;11.10;99.90;;;;;;5022538;28;20267;-77
2023/01/07 02:46:23;;;;;;;33.80;26.42;;;11.10;99.90;;;;;;5033956;28;20171;-77
2023/01/07 02:48:50;;;;;;;36.78;26.23;;;11.10;99.90;;;;;;5042523;28;20551;-77
2023/01/07 02:51:16;;;;;;;34.15;25.55;;;11.10;99.90;;;;;;5040067;28;20203;-77
2023/01/07 02:53:45;;;;;;;37.33;27.23;;;11.20;99.90;;;;;;5035130;28;20192;-77
2023/01/07 02:56:18;;;;;;;36.55;27.10;;;11.20;99.90;;;;;;5039455;28;20478;-77
2023/01/07 02:58:59;;;;;;;34.92;25.95;;;11.20;99.90;;;;;;5032307;28;20187;-78
2023/01/07 03:01:38;;;;;;;36.17;26.45;;;11.20;99.90;;;;;;5063910;28;20281;-79
2023/01/07 03:04:29;;;;;;;35.90;26.40;;;11.20;99.90;;;;;;5038802;28;20267;-79
2023/01/07 03:07:04;;;;;;;36.10;27.17;;;11.20;99.90;;;;;;5049537;28;20180;-78
2023/01/07 03:09:39;;;;;;;35.28;26.70;;;11.20;99.90;;;;;;5032860;28;20191;-79
2023/01/07 03:12:04;;;;;;;35.65;26.70;;;11.30;99.90;;;;;;5033143;28;20683;-78
2023/01/07 03:14:58;;;;;;;36.17;27.95;;;11.30;99.90;;;;;;5047607;28;20218;-78
2023/01/07 03:17:32;;;;;;;37.83;26.98;;;11.20;99.90;;;;;;5014657;28;20181;-78
2023/01/07 03:20:00;;;;;;;37.65;26.45;;;11.30;99.90;;;;;;5034240;28;20544;-78
2023/01/07 03:22:28;;;;;;;33.97;27.17;;;11.30;99.90;;;;;;5030103;28;20189;-81
2023/01/07 03:24:56;;;;;;;37.63;26.88;;;11.30;99.90;;;;;;5031674;28;20207;-77
2023/01/07 03:27:26;;;;;;;33.70;26.80;;;11.30;99.90;;;;;;5032351;28;20192;-77
2023/01/07 03:29:52;;;;;;;36.28;26.88;;;11.30;99.90;;;;;;5045374;28;20192;-76
2023/01/07 03:32:36;;;;;;;35.33;27.67;;;11.30;99.90;;;;;;5012250;28;20272;-77
2023/01/07 03:35:03;;;;;;;38.42;28.73;;;11.30;99.90;;;;;;5049370;28;20278;-77
2023/01/07 03:37:31;;;;;;;36.38;28.42;;;11.40;99.90;;;;;;5046478;28;20176;-78
2023/01/07 03:39:59;;;;;;;36.22;27.65;;;11.40;99.90;;;;;;5048631;28;20184;-77
2023/01/07 03:42:38;;;;;;;34.42;27.45;;;11.40;99.90;;;;;;5033293;28;20195;-77
2023/01/07 03:45:14;;;;;;;33.95;27.95;;;11.40;99.90;;;;;;5029355;28;20189;-82
2023/01/07 03:47:44;;;;;;;35.28;27.77;;;11.40;99.90;;;;;;5045724;28;20170;-78
2023/01/07 03:50:10;;;;;;;35.63;27.67;;;11.40;99.90;;;;;;5055308;28;20183;-77
2023/01/07 03:52:39;;;;;;;34.03;26.50;;;11.40;99.90;;;;;;5046370;28;20272;-79
2023/01/07 03:55:06;;;;;;;35.00;26.05;;;11.40;99.90;;;;;;5064035;28;20444;-80
2023/01/07 03:57:32;;;;;;;33.05;26.50;;;11.40;99.90;;;;;;5033083;28;20636;-78
2023/01/07 04:00:01;;;;;;;35.92;25.98;;;11.40;99.90;;;;;;5016978;28;20295;-78
2023/01/07 04:02:29;;;;;;;32.28;25.48;;;11.40;99.90;;;;;;5020892;28;20200;-79
2023/01/07 04:04:55;;;;;;;31.75;25.58;;;11.40;99.90;;;;;;5036784;28;20709;-77
2023/01/07 04:07:21;;;;;;;34.88;24.58;;;11.40;99.90;;;;;;5034350;28;20194;-80
2023/01/07 04:09:48;;;;;;;30.02;24.35;;;11.40;99.90;;;;;;5032090;28;20196;-77
2023/01/07 04:12:15;;;;;;;29.92;24.00;;;11.40;99.90;;;;;;5047103;28;20645;-77
2023/01/07 04:14:41;;;;;;;32.40;24.33;;;11.40;99.90;;;;;;5012774;28;20270;-77
2023/01/07 04:17:07;;;;;;;29.70;23.88;;;11.40;99.90;;;;;;5017483;28;20284;-77
2023/01/07 04:19:33;;;;;;;30.33;24.17;;;11.40;99.90;;;;;;5040964;28;20613;-78
2023/01/07 04:21:59;;;;;;;30.67;23.67;;;11.50;99.90;;;;;;5053067;28;20275;-77
2023/01/07 04:24:25;;;;;;;30.95;23.05;;;11.50;99.90;;;;;;5029949;28;20297;-77
2023/01/07 04:26:51;;;;;;;27.80;22.38;;;11.40;99.90;;;;;;5061903;28;20644;-79
2023/01/07 04:29:17;;;;;;;29.25;22.90;;;11.50;99.90;;;;;;5013654;28;20267;-77
2023/01/07 04:31:43;;;;;;;28.38;23.23;;;11.40;99.90;;;;;;5039068;28;20915;-77
2023/01/07 04:34:09;;;;;;;31.00;23.25;;;11.50;99.90;;;;;;5063032;28;20203;-77
2023/01/07 04:36:35;;;;;;;33.75;21.58;;;11.40;99.90;;;;;;5047297;28;20195;-77
2023/01/07 04:39:01;;;;;;;30.55;22.30;;;11.50;99.90;;;;;;5046452;28;20267;-77
2023/01/07 04:41:27;;;;;;;28.50;22.90;;;11.40;99.90;;;;;;5047384;28;20663;-77
2023/01/07 04:43:53;;;;;;;35.30;23.88;;;11.40;99.90;;;;;;5044927;28;20227;-77
2023/01/07 04:46:19;;;;;;;29.63;23.30;;;11.50;99.90;;;;;;5044881;28;20188;-77
2023/01/07 04:48:45;;;;;;;30.65;21.63;;;11.40;99.90;;;;;;5040889;28;20219;-77
2023/01/07 04:51:11;;;;;;;27.45;22.27;;;11.50;99.90;;;;;;5030786;28;21913;-77
2023/01/07 04:53:37;;;;;;;27.58;21.88;;;11.50;99.90;;;;;;5046287;28;20594;-77
2023/01/07 04:56:05;;;;;;;32.13;23.13;;;11.40;99.90;;;;;;5016495;28;20199;-80
2023/01/07 04:58:31;;;;;;;31.02;23.05;;;11.50;99.90;;;;;;5045593;28;20191;-77
2023/01/07 05:00:58;;;;;;;31.27;23.38;;;11.40;99.90;;;;;;5046791;28;20191;-77
2023/01/07 05:03:25;;;;;;;31.30;23.10;;;11.40;99.90;;;;;;5044223;28;20208;-77
2023/01/07 05:05:51;;;;;;;30.38;23.13;;;11.50;99.90;;;;;;5035381;28;20471;-76
2023/01/07 05:08:19;;;;;;;26.20;21.42;;;11.40;99.90;;;;;;5046646;28;20274;-76
2023/01/07 05:10:50;;;;;;;28.92;21.83;;;11.40;99.90;;;;;;5045109;28;20235;-76
2023/01/07 05:13:19;;;;;;;32.00;22.27;;;11.40;99.90;;;;;;5028862;28;20209;-77
2023/01/07 05:15:46;;;;;;;28.88;22.17;;;11.40;99.90;;;;;;5030357;28;20180;-78
2023/01/07 05:18:12;;;;;;;31.45;20.75;;;11.40;99.90;;;;;;5049539;28;20204;-76
2023/01/07 05:20:38;;;;;;;32.15;21.92;;;11.40;99.90;;;;;;5049372;28;20226;-76
2023/01/07 05:23:05;;;;;;;32.42;22.10;;;11.40;99.90;;;;;;5050870;28;20275;-77
2023/01/07 05:25:32;;;;;;;28.45;21.77;;;11.40;99.90;;;;;;5031551;28;20216;-80
2023/01/07 05:27:58;;;;;;;29.17;22.02;;;11.40;99.90;;;;;;5058838;28;20279;-78
2023/01/07 05:30:25;;;;;;;31.20;22.02;;;11.40;99.90;;;;;;5050014;28;20219;-77
2023/01/07 05:32:50;;;;;;;29.45;21.88;;;11.40;99.90;;;;;;5048829;28;20651;-78
2023/01/07 05:35:16;;;;;;;28.95;21.10;;;11.30;99.90;;;;;;5032895;28;20580;-77
2023/01/07 05:37:42;;;;;;;30.70;20.90;;;11.40;99.90;;;;;;5031935;28;20263;-78
2023/01/07 05:40:09;;;;;;;28.35;21.23;;;11.30;99.90;;;;;;5050346;28;20678;-78
2023/01/07 05:42:35;;;;;;;27.70;20.08;;;11.30;99.90;;;;;;5019588;28;20185;-78
2023/01/07 05:45:01;;;;;;;30.50;19.70;;;11.30;99.90;;;;;;5017146;28;20226;-78
2023/01/07 05:47:26;;;;;;;29.20;21.48;;;11.30;99.90;;;;;;5049415;28;20640;-81
2023/01/07 05:49:52;;;;;;;24.63;19.55;;;11.30;99.90;;;;;;5030096;28;20188;-78
2023/01/07 05:52:18;;;;;;;25.92;19.52;;;11.30;99.90;;;;;;5019773;28;20189;-77
2023/01/07 05:54:44;;;;;;;26.27;18.95;;;11.30;99.90;;;;;;5032002;28;20274;-78
2023/01/07 05:57:10;;;;;;;22.10;17.77;;;11.30;99.90;;;;;;5066432;28;20271;-78
2023/01/07 05:59:35;;;;;;;24.23;18.10;;;11.30;99.90;;;;;;5033171;28;20195;-77
2023/01/07 06:02:01;;;;;;;25.55;18.40;;;11.30;99.90;;;;;;5048507;28;20188;-77
2023/01/07 06:04:27;;;;;;;26.17;17.50;;;11.30;99.90;;;;;;5032160;28;20211;-78
2023/01/07 06:06:53;;;;;;;23.73;17.20;;;11.30;99.90;;;;;;5076687;28;20195;-78
2023/01/07 06:09:19;;;;;;;26.38;17.67;;;11.30;99.90;;;;;;5031928;28;20250;-78
2023/01/07 06:11:45;;;;;;;23.15;17.52;;;11.30;99.90;;;;;;5063128;28;20312;-76
2023/01/07 06:14:11;;;;;;;23.70;16.67;;;11.30;99.90;;;;;;5032001;28;20222;-77
2023/01/07 06:16:36;;;;;;;20.50;15.70;;;11.30;99.90;;;;;;5028016;28;20185;-75
2023/01/07 06:19:02;;;;;;;24.27;15.75;;;11.30;99.90;;;;;;5059395;28;20184;-74
2023/01/07 06:21:28;;;;;;;22.60;15.23;;;11.30;99.90;;;;;;5033675;28;20597;-76
2023/01/07 06:23:55;;;;;;;21.27;15.70;;;11.30;99.90;;;;;;5048339;28;20659;-77
2023/01/07 06:26:21;;;;;;;19.63;14.38;;;11.30;99.90;;;;;;5065791;28;20184;-76
2023/01/07 06:28:47;;;;;;;19.55;15.45;;;11.30;99.90;;;;;;5026956;28;20172;-78
2023/01/07 06:31:12;;;;;;;22.23;15.82;;;11.30;99.90;;;;;;5065607;28;20741;-75
2023/01/07 06:33:39;;;;;;;22.05;14.95;;;11.30;99.90;;;;;;5064603;28;20234;-75
2023/01/07 06:36:06;;;;;;;21.98;15.35;;;11.30;99.90;;;;;;5041198;28;20187;-75
2023/01/07 06:38:32;;;;;;;18.83;14.27;;;11.30;99.90;;;;;;5033086;28;20195;-77
2023/01/07 06:40:58;;;;;;;21.60;14.50;;;11.30;99.90;;;;;;5048485;28;20192;-78
2023/01/07 06:43:24;;;;;;;20.60;14.23;;;11.30;99.90;;;;;;5032239;28;20585;-80
2023/01/07 06:45:50;;;;;;;22.35;14.73;;;11.30;99.90;;;;;;5034145;28;20246;-79
2023/01/07 06:48:16;;;;;;;18.98;14.32;;;11.20;99.90;;;;;;5048089;28;20196;-79
2023/01/07 06:50:43;;;;;;;19.33;14.10;;;11.30;99.90;;;;;;5015651;28;20192;-78
2023/01/07 06:53:09;;;;;;;21.30;14.00;;;11.30;99.90;;;;;;5019609;28;20636;-78
2023/01/07 06:55:35;;;;;;;20.90;14.25;;;11.20;99.90;;;;;;5048978;28;20188;-77
2023/01/07 06:58:01;;;;;;;19.30;14.02;;;11.20;99.90;;;;;;5047237;28;20172;-77
2023/01/07 07:00:26;;;;;;;20.25;14.02;;;11.20;99.90;;;;;;5033140;28;20290;-78
2023/01/07 07:02:52;;;;;;;19.40;13.27;;;11.20;99.90;;;;;;5031657;28;20646;-78
2023/01/07 07:05:18;;;;;;;20.73;13.43;;;11.20;99.90;;;;;;5068265;28;22030;-78
2023/01/07 07:07:44;;;;;;;19.83;13.88;;;11.20;99.90;;;;;;5017041;28;20644;-78
2023/01/07 07:10:10;;;;;;;17.73;13.38;;;11.10;99.90;;;;;;5034032;28;20176;-78
2023/01/07 07:12:37;;;;;;;20.13;13.07;;;11.10;99.90;;;;;;5033130;28;20191;-78
2023/01/07 07:15:05;;;;;;;20.17;13.38;;;11.10;99.90;;;;;;5032072;28;20188;-78
2023/01/07 07:17:31;;;;;;;18.88;13.25;;;11.10;99.90;;;;;;5014490;28;20184;-78
2023/01/07 07:19:57;;;;;;;19.77;13.35;;;11.20;99.90;;;;;;5021428;28;20748;-78
2023/01/07 07:22:23;;;;;;;18.55;12.80;;;11.10;99.90;;;;;;5051528;28;20188;-77
2023/01/07 07:24:48;;;;;;;22.30;13.50;;;11.10;99.90;;;;;;5019067;28;20277;-81
2023/01/07 07:27:14;;;;;;;18.25;12.50;;;11.10;99.90;;;;;;5029411;28;20279;-78
2023/01/07 07:29:40;;;;;;;22.85;13.90;;;11.20;99.90;;;;;;5031559;28;20212;-77
2023/01/07 07:32:06;;;;;;;17.13;12.27;;;11.20;99.90;;;;;;5037034;28;20175;-79
2023/01/07 07:34:31;;;;;;;16.63;12.50;;;11.10;99.90;;;;;;5026104;28;20206;-79
2023/01/07 07:36:57;;;;;;;15.57;12.30;;;11.20;99.90;;;;;;5066080;28;20262;-78
2023/01/07 07:39:23;;;;;;;19.20;12.57;;;11.20;99.90;;;;;;5063349;28;20278;-77
2023/01/07 07:41:48;;;;;;;15.98;12.38;;;11.20;99.90;;;;;;5024988;28;20620;-77
2023/01/07 07:44:16;;;;;;;16.75;12.30;;;11.20;99.90;;;;;;5058363;28;20206;-78
2023/01/07 07:46:42;;;;;;;18.35;12.48;;;11.20;99.90;;;;;;5029731;28;20200;-78
2023/01/07 07:49:10;;;;;;;16.65;12.18;;;11.20;99.90;;;;;;5025047;28;20259;-77
2023/01/07 07:51:35;;;;;;;17.92;11.18;;;11.20;99.90;;;;;;5041079;28;20180;-77
2023/01/07 07:54:01;;;;;;;14.93;10.82;;;11.10;99.90;;;;;;5016344;28;20184;-77
2023/01/07 07:56:27;;;;;;;17.85;11.15;;;11.10;99.90;;;;;;5028609;28;20267;-79
2023/01/07 07:58:53;;;;;;;16.95;10.88;;;11.20;99.90;;;;;;5031176;28;20275;-79
2023/01/07 08:01:18;;;;;;;17.85;10.70;;;11.10;99.90;;;;;;5033452;28;20188;-77
2023/01/07 08:03:44;;;;;;;18.10;10.55;;;11.20;99.90;;;;;;5030938;28;20219;-79
2023/01/07 08:06:12;;;;;;;15.68;9.73;;;11.20;99.90;;;;;;5046891;28;20219;-76
2023/01/07 08:08:37;;;;;;;13.52;10.15;;;11.20;99.90;;;;;;5032509;28;20223;-77
2023/01/07 08:11:04;;;;;;;12.48;10.20;;;11.20;99.90;;;;;;5058047;28;20636;-77
2023/01/07 08:13:30;;;;;;;14.45;9.98;;;11.20;99.90;;;;;;5042722;28;20230;-78
2023/01/07 08:15:56;;;;;;;13.18;9.27;;;11.20;99.90;;;;;;5024431;28;20188;-77
2023/01/07 08:18:22;;;;;;;14.68;9.32;;;11.20;99.90;;;;;;5051508;28;20187;-77
2023/01/07 08:20:49;;;;;;;14.23;9.30;;;11.20;99.90;;;;;;5047473;28;20564;-77
2023/01/07 08:23:15;;;;;;;11.15;8.90;;;11.20;99.90;;;;;;5043030;28;20546;-76
2023/01/07 08:25:41;;;;;;;12.40;8.00;;;11.20;99.90;;;;;;5021923;28;20188;-79
2023/01/07 08:28:07;;;;;;;12.43;8.77;;;11.20;99.90;;;;;;5031329;28;20237;-77
2023/01/07 08:30:33;;;;;;;14.00;8.38;;;11.20;99.90;;;;;;5040363;28;20653;-80
2023/01/07 08:33:03;;;;;;;11.02;8.25;;;11.20;99.90;;;;;;5046163;28;20180;-77
2023/01/07 08:35:29;;;;;;;9.85;7.53;;;11.20;99.90;;;;;;5029406;28;20263;-81
2023/01/07 08:38:05;;;;;;;11.45;8.30;;;11.20;99.90;;;;;;5030140;28;20605;-77
2023/01/07 08:40:31;;;;;;;12.75;8.15;;;11.20;99.90;;;;;;5047688;28;20533;-77
2023/01/07 08:43:02;;;;;;;13.25;7.72;;;11.20;99.90;;;;;;5029398;28;20268;-77
2023/01/07 08:45:28;;;;;;;10.43;7.72;;;11.20;99.90;;;;;;5029094;28;20653;-79
2023/01/07 08:47:57;;;;;;;16.58;7.57;;;11.20;99.90;;;;;;5021006;28;20177;-77
2023/01/07 08:50:28;;;;;;;13.18;7.53;;;11.20;99.90;;;;;;5029902;28;20651;-80
2023/01/07 08:52:54;;;;;;;10.93;6.90;;;11.20;99.90;;;;;;5046116;28;20229;-80
2023/01/07 08:55:20;;;;;;;10.20;6.82;;;11.30;99.90;;;;;;5029585;28;20180;-77
2023/01/07 08:57:46;;;;;;;13.50;7.38;;;11.20;99.90;;;;;;5030106;28;20275;-77
2023/01/07 09:00:14;;;;;;;7.93;6.78;;;11.30;99.90;;;;;;5032163;28;20259;-77
2023/01/07 09:02:40;;;;;;;9.30;6.68;;;11.30;99.90;;;;;;5030761;28;20186;-78
2023/01/07 09:05:06;;;;;;;10.48;6.63;;;11.40;99.90;;;;;;5048512;28;20307;-78
2023/01/07 09:07:32;;;;;;;12.25;6.90;;;11.50;99.90;;;;;;5062011;28;20188;-78
2023/01/07 09:09:58;;;;;;;11.73;6.57;;;11.60;99.90;;;;;;5047602;28;20558;-81
2023/01/07 09:12:24;;;;;;;8.40;6.22;;;11.60;99.90;;;;;;5018501;28;20289;-77
2023/01/07 09:14:49;;;;;;;9.75;6.40;;;11.70;99.90;;;;;;5050680;28;20662;-77
2023/01/07 09:17:15;;;;;;;9.45;5.90;;;11.70;99.90;;;;;;5030981;28;20175;-77
2023/01/07 09:19:41;;;;;;;9.13;6.22;;;11.70;99.90;;;;;;5025987;28;20187;-78
2023/01/07 09:22:06;;;;;;;10.05;6.03;;;11.70;99.90;;;;;;5031278;28;20653;-77
2023/01/07 09:24:32;;;;;;;7.40;5.75;;;11.70;99.90;;;;;;5039115;28;20742;-77
2023/01/07 09:26:58;;;;;;;7.47;5.70;;;11.70;99.90;;;;;;5033077;28;20212;-77
2023/01/07 09:29:23;;;;;;;8.27;5.40;;;11.80;99.90;;;;;;5027178;28;20563;-77
2023/01/07 09:31:49;;;;;;;8.30;6.10;;;11.90;99.90;;;;;;5027857;28;20179;-83
2023/01/07 09:34:15;;;;;;;8.73;5.80;;;12.00;99.90;;;;;;5047519;28;20608;-77
2023/01/07 09:36:41;;;;;;;6.93;5.55;;;12.10;99.90;;;;;;5032184;28;20172;-78
2023/01/07 09:39:08;;;;;;;7.72;5.05;;;12.10;99.90;;;;;;5029692;28;20721;-78
2023/01/07 09:41:37;;;;;;;8.77;5.13;;;12.20;99.90;;;;;;5063511;28;20192;-78
2023/01/07 09:44:24;;;;;;;6.60;5.18;;;12.20;99.90;;;;;;5063400;28;20211;-78
2023/01/07 09:46:52;;;;;;;10.38;5.10;;;12.30;99.90;;;;;;5032024;28;20266;-77
2023/01/07 09:49:18;;;;;;;7.60;5.45;;;12.30;99.90;;;;;;5030390;28;20195;-79
2023/01/07 09:51:56;;;;;;;7.68;4.88;;;12.40;99.90;;;;;;5021466;28;20176;-78
2023/01/07 09:54:32;;;;;;;10.38;5.50;;;12.50;99.90;;;;;;5026705;28;20172;-77
2023/01/07 09:56:58;;;;;;;8.27;4.97;;;12.60;99.90;;;;;;5047022;28;20540;-78
2023/01/07 09:59:24;;;;;;;9.00;5.07;;;12.70;99.90;;;;;;5027844;28;20324;-76
2023/01/07 10:01:58;;;;;;;6.88;4.30;;;12.70;99.90;;;;;;5032727;28;20660;-77
2023/01/07 10:05:01;;;;;;;6.28;4.20;;;12.80;99.90;;;;;;5034313;28;20195;-76
2023/01/07 10:07:32;;;;;;;7.07;4.50;;;12.80;99.90;;;;;;5032744;28;20231;-76
2023/01/07 10:10:16;;;;;;;7.88;4.28;;;12.80;99.90;;;;;;5028633;28;20178;-76
2023/01/07 10:13:14;;;;;;;5.82;4.07;;;12.80;99.90;;;;;;5033363;28;20263;-79
2023/01/07 10:16:11;;;;;;;5.63;4.43;;;12.80;99.90;;;;;;5044535;28;20194;-81
2023/01/07 10:19:24;;;;;;;8.73;4.10;;;12.70;99.90;;;;;;5027196;28;20275;-83
2023/01/07 10:21:57;;;;;;;6.95;4.30;;;12.70;99.90;;;;;;5021073;28;20730;-77
2023/01/07 10:24:35;;;;;;;5.88;4.20;;;12.60;99.90;;;;;;5050262;28;20298;-78
2023/01/07 10:27:08;;;;;;;8.90;3.92;;;12.60;99.90;;;;;;5050065;28;20176;-79
2023/01/07 10:29:55;;;;;;;5.68;3.83;;;12.70;99.90;;;;;;5027785;28;21410;-79
2023/01/07 10:32:23;;;;;;;4.97;3.83;;;12.80;99.90;;;;;;5046862;28;20699;-77
2023/01/07 10:34:54;;;;;;;5.47;4.10;;;13.00;99.90;;;;;;5047279;28;20187;-79
2023/01/07 10:37:25;;;;;;;6.60;3.58;;;13.10;99.90;;;;;;5071928;28;20186;-78
2023/01/07 10:40:14;;;;;;;5.25;3.65;;;13.10;99.90;;;;;;5035865;28;20172;-80
2023/01/07 10:42:56;;;;;;;7.15;3.80;;;13.00;99.90;;;;;;5049307;28;20642;-79
2023/01/07 10:45:47;;;;;;;5.57;3.30;;;12.90;99.90;;;;;;5050335;28;20176;-79
2023/01/07 10:48:30;;;;;;;6.15;3.97;;;12.80;99.90;;;;;;5065311;28;20249;-81
2023/01/07 10:51:40;;;;;;;5.55;3.35;;;12.60;99.90;;;;;;5022578;28;20203;-79
2023/01/07 10:54:40;;;;;;;5.65;3.60;;;12.40;99.90;;;;;;5020550;28;20207;-79
2023/01/07 10:57:14;;;;;;;5.05;3.80;;;12.40;99.90;;;;;;5050168;28;20215;-80
2023/01/07 10:59:46;;;;;;;4.35;3.17;;;12.30;99.90;;;;;;5065798;28;20250;-79
2023/01/07 11:02:16;;;;;;;6.28;3.50;;;12.30;99.90;;;;;;5044467;28;20276;-79
2023/01/07 11:04:41;;;;;;;7.18;3.55;;;12.30;99.90;;;;;;5064917;28;20298;-78
2023/01/07 11:07:13;;;;;;;5.00;3.47;;;12.40;99.90;;;;;;5054289;28;20305;-79
2023/01/07 11:09:44;;;;;;;7.00;3.70;;;12.40;99.90;;;;;;5033367;28;20198;-78
2023/01/07 11:12:33;;;;;;;4.90;3.53;;;12.40;99.90;;;;;;5034457;28;20303;-78
2023/01/07 11:15:02;;;;;;;5.30;2.75;;;12.30;99.90;;;;;;5045460;28;20173;-78
2023/01/07 11:17:36;;;;;;;5.40;3.22;;;12.30;99.90;;;;;;5033228;28;20180;-82
2023/01/07 11:20:03;;;;;;;9.13;6.15;;;12.20;99.90;;;;;;5034081;28;20187;-78
2023/01/07 11:22:32;;;;;;;5.78;3.10;;;12.20;99.90;;;;;;5049012;28;20183;-79
2023/01/07 11:25:00;;;;;;;5.50;3.25;;;12.20;99.90;;;;;;5031059;28;20200;-78
2023/01/07 11:27:29;;;;;;;4.05;2.92;;;12.20;99.90;;;;;;5032315;28;20224;-78
2023/01/07 11:30:00;;;;;;;5.68;3.00;;;12.10;99.90;;;;;;5030090;28;20180;-78
2023/01/07 11:32:31;;;;;;;3.83;3.15;;;12.10;99.90;;;;;;5030061;28;20270;-83
2023/01/07 11:35:16;;;;;;;4.47;2.63;;;12.20;99.90;;;;;;5022678;28;20624;-78
2023/01/07 11:37:44;;;;;;;3.30;2.90;;;12.20;99.90;;;;;;5035089;28;20183;-78
2023/01/07 11:40:13;;;;;;;4.40;2.88;;;12.20;99.90;;;;;;5024826;28;20195;-81
2023/01/07 11:42:53;;;;;;;5.93;4.13;;;12.20;99.90;;;;;;5030845;28;20223;-81
2023/01/07 11:45:26;;;;;;;4.72;2.78;;;12.20;99.90;;;;;;5034058;28;20302;-81
2023/01/07 11:48:06;;;;;;;4.45;2.55;;;12.30;99.90;;;;;;5030574;28;20188;-80
2023/01/07 11:51:05;;;;;;;8.63;3.40;;;12.30;99.90;;;;;;5031624;28;20185;-81
2023/01/07 11:53:44;;;;;;;6.28;2.53;;;12.30;99.90;;;;;;5001075;28;20204;-81
2023/01/07 11:56:34;;;;;;;5.80;2.67;;;12.30;99.90;;;;;;5049755;28;20169;-81
2023/01/07 11:59:14;;;;;;;4.13;2.45;;;12.30;99.90;;;;;;5058064;28;20204;-81
2023/01/07 12:01:58;;;;;;;4.07;2.67;;;12.30;99.90;;;;;;5047271;28;20184;-81
2023/01/07 12:04:34;;;;;;;5.25;2.70;;;12.40;99.90;;;;;;5025824;28;20207;-82
2023/01/07 12:07:03;;;;;;;3.88;2.80;;;12.40;99.90;;;;;;5036913;28;20192;-81
2023/01/07 12:09:35;;;;;;;3.65;2.50;;;12.40;99.90;;;;;;5062798;28;20176;-78
2023/01/07 12:12:37;;;;;;;3.35;2.25;;;12.30;99.90;;;;;;5031929;28;20224;-78
2023/01/07 12:15:25;;;;;;;3.22;2.58;;;12.30;99.90;;;;;;5041333;28;20182;-78
2023/01/07 12:18:06;;;;;;;4.43;2.72;;;12.30;99.90;;;;;;5031854;28;20814;-78
2023/01/07 12:21:14;;;;;;;9.80;6.32;;;12.30;99.90;;;;;;5033084;28;20385;-78
2023/01/07 12:24:13;;;;;;;4.60;2.92;;;12.20;99.90;;;;;;5029339;28;20199;-78
2023/01/07 12:26:48;;;;;;;3.28;2.33;;;12.20;99.90;;;;;;5046330;28;20184;-81
2023/01/07 12:29:53;;;;;;;6.22;2.40;;;12.20;99.90;;;;;;5034661;28;20204;-78
2023/01/07 12:32:37;;;;;;;4.88;2.40;;;12.20;99.90;;;;;;5012729;28;20157;-79
2023/01/07 12:35:09;;;;;;;5.18;2.38;;;12.20;99.90;;;;;;5023961;28;20207;-81
2023/01/07 12:37:51;;;;;;;2.90;2.30;;;12.30;99.90;;;;;;5020032;28;20251;-79
2023/01/07 12:40:34;;;;;;;2.95;2.30;;;12.30;99.90;;;;;;5016417;28;20169;-78
2023/01/07 12:43:31;;;;;;;3.50;2.45;;;12.40;99.90;;;;;;5017739;28;20233;-78
2023/01/07 12:46:03;;;;;;;2.95;2.28;;;12.50;99.90;;;;;;5032253;28;20187;-78
2023/01/07 12:48:41;;;;;;;3.63;2.17;;;12.60;99.90;;;;;;5040884;28;20559;-81
2023/01/07 12:51:17;;;;;;;3.47;2.30;;;12.70;99.90;;;;;;5061688;28;20172;-78
2023/01/07 12:53:50;;;;;;;3.47;2.03;;;12.80;99.90;;;;;;5028122;28;20224;-77